createdAt,value
2019-01-18T00:00:00.995Z,6.10
2019-01-18T00:02:34.751Z,8.80
2019-01-18T00:05:06.886Z,7.87
2019-01-18T00:07:38.750Z,5.17
2019-01-18T00:10:11.201Z,8.23
2019-01-18T00:12:43.028Z,8.57
2019-01-18T00:15:14.619Z,7.50
2019-01-18T00:17:46.502Z,7.60
2019-01-18T00:20:18.235Z,7.10
2019-01-18T00:22:51.523Z,5.83
2019-01-18T00:25:24.786Z,7.17
2019-01-18T00:27:56.852Z,8.27
2019-01-18T00:30:28.275Z,5.53
2019-01-18T00:33:00.350Z,8.63
2019-01-18T00:35:32.024Z,12.30
2019-01-18T00:38:03.504Z,9.20
2019-01-18T00:40:36.383Z,13.63
2019-01-18T00:43:08.270Z,9.97
2019-01-18T00:45:41.538Z,13.10
2019-01-18T00:48:14.061Z,8.27
2019-01-18T00:50:46.058Z,7.27
2019-01-18T00:53:19.222Z,9.20
2019-01-18T00:55:50.841Z,8.90
2019-01-18T00:58:22.378Z,11.97
2019-01-18T01:00:57.307Z,7.73
2019-01-18T01:03:28.978Z,6.47
2019-01-18T01:06:00.834Z,8.90
2019-01-18T01:08:32.315Z,4.00
2019-01-18T01:11:04.174Z,6.83
2019-01-18T01:13:35.976Z,5.20
2019-01-18T01:16:07.861Z,3.93
2019-01-18T01:18:39.288Z,7.17
2019-01-18T01:21:11.394Z,7.27
2019-01-18T01:23:42.991Z,9.60
2019-01-18T01:26:14.842Z,6.93
2019-01-18T01:28:46.367Z,4.63
2019-01-18T01:31:18.317Z,3.93
2019-01-18T01:33:51.077Z,8.53
2019-01-18T01:36:22.883Z,5.13
2019-01-18T01:38:54.463Z,3.27
2019-01-18T01:41:26.500Z,3.00
2019-01-18T01:43:58.024Z,3.80
2019-01-18T01:46:29.452Z,5.93
2019-01-18T01:49:00.933Z,5.13
2019-01-18T01:51:32.558Z,4.70
2019-01-18T01:54:04.084Z,3.57
2019-01-18T01:56:35.473Z,7.63
2019-01-18T01:59:07.055Z,6.33
2019-01-18T02:01:38.395Z,8.93
2019-01-18T02:04:10.056Z,8.13
2019-01-18T02:06:41.927Z,5.70
2019-01-18T02:09:13.237Z,9.37
2019-01-18T02:11:45.029Z,10.47
2019-01-18T02:14:18.234Z,7.20
2019-01-18T02:16:49.971Z,6.13
2019-01-18T02:19:21.465Z,5.10
2019-01-18T02:21:52.787Z,8.67
2019-01-18T02:24:24.357Z,8.37
2019-01-18T02:26:56.951Z,8.33
2019-01-18T02:29:30.559Z,12.47
2019-01-18T02:32:03.502Z,10.00
2019-01-18T02:34:36.293Z,9.53
2019-01-18T02:37:08.153Z,10.80
2019-01-18T02:39:39.924Z,13.07
2019-01-18T02:42:12.391Z,6.50
2019-01-18T02:44:45.661Z,13.20
2019-01-18T02:47:17.169Z,9.33
2019-01-18T02:49:48.676Z,12.90
2019-01-18T02:52:20.436Z,10.87
2019-01-18T02:54:51.885Z,14.93
2019-01-18T02:57:24.682Z,8.63
2019-01-18T02:59:56.158Z,10.37
2019-01-18T03:02:27.803Z,9.27
2019-01-18T03:04:59.463Z,7.13
2019-01-18T03:07:31.140Z,11.43
2019-01-18T03:10:04.591Z,9.30
2019-01-18T03:12:37.420Z,8.80
2019-01-18T03:15:09.291Z,11.87
2019-01-18T03:17:40.650Z,9.07
2019-01-18T03:20:15.034Z,8.00
2019-01-18T03:22:46.584Z,9.90
2019-01-18T03:25:23.676Z,7.67
2019-01-18T03:27:56.054Z,6.27
2019-01-18T03:30:27.683Z,7.97
2019-01-18T03:33:01.518Z,19.00
2019-01-18T03:35:32.942Z,10.00
2019-01-18T03:38:04.535Z,10.37
2019-01-18T03:40:36.315Z,16.47
2019-01-18T03:43:08.121Z,8.50
2019-01-18T03:45:39.897Z,5.63
2019-01-18T03:48:11.646Z,6.67
2019-01-18T03:50:43.116Z,9.03
2019-01-18T03:53:14.700Z,11.17
2019-01-18T03:55:46.126Z,8.80
2019-01-18T03:58:17.866Z,9.67
2019-01-18T04:00:49.291Z,8.60
2019-01-18T04:03:20.851Z,8.73
2019-01-18T04:05:52.455Z,8.53
2019-01-18T04:08:23.892Z,9.13
2019-01-18T04:10:55.730Z,9.87
2019-01-18T04:13:27.306Z,8.57
2019-01-18T04:15:58.767Z,7.40
2019-01-18T04:18:30.369Z,9.83
2019-01-18T04:21:01.816Z,6.23
2019-01-18T04:23:34.765Z,12.73
2019-01-18T04:26:06.571Z,6.87
2019-01-18T04:28:38.063Z,6.43
2019-01-18T04:31:09.940Z,5.53
2019-01-18T04:33:41.393Z,6.43
2019-01-18T04:36:12.867Z,9.73
2019-01-18T04:38:44.807Z,8.33
2019-01-18T04:41:16.184Z,8.47
2019-01-18T04:43:48.373Z,17.53
2019-01-18T04:46:20.053Z,7.40
2019-01-18T04:48:51.405Z,7.40
2019-01-18T04:51:22.887Z,11.40
2019-01-18T04:53:54.761Z,8.23
2019-01-18T04:56:26.293Z,10.13
2019-01-18T04:58:58.694Z,8.73
2019-01-18T05:01:30.522Z,5.90
2019-01-18T05:04:03.189Z,7.50
2019-01-18T05:06:34.751Z,7.90
2019-01-18T05:09:08.060Z,7.03
2019-01-18T05:11:39.574Z,8.57
2019-01-18T05:14:10.989Z,11.37
2019-01-18T05:16:43.803Z,6.63
2019-01-18T05:19:15.802Z,7.43
2019-01-18T05:21:48.312Z,9.33
2019-01-18T05:24:20.854Z,8.13
2019-01-18T05:26:53.790Z,14.23
2019-01-18T05:29:25.780Z,5.93
2019-01-18T05:31:57.226Z,6.30
2019-01-18T05:34:28.802Z,6.30
2019-01-18T05:37:00.281Z,5.20
2019-01-18T05:39:31.759Z,8.10
2019-01-18T05:42:03.352Z,7.87
2019-01-18T05:44:34.730Z,6.77
2019-01-18T05:47:06.665Z,6.50
2019-01-18T05:49:39.739Z,8.50
2019-01-18T05:52:11.232Z,8.87
2019-01-18T05:54:42.780Z,9.17
2019-01-18T05:57:14.385Z,12.57
2019-01-18T05:59:45.772Z,9.33
2019-01-18T06:02:17.262Z,8.90
2019-01-18T06:04:49.732Z,8.17
2019-01-18T06:07:22.247Z,9.43
2019-01-18T06:09:53.910Z,7.23
2019-01-18T06:12:25.830Z,9.33
2019-01-18T06:14:57.556Z,9.97
2019-01-18T06:17:29.029Z,7.40
2019-01-18T06:20:00.578Z,9.63
2019-01-18T06:22:32.225Z,10.57
2019-01-18T06:25:04.022Z,6.90
2019-01-18T06:27:35.701Z,7.80
2019-01-18T06:30:12.300Z,7.57
2019-01-18T06:32:44.929Z,13.30
2019-01-18T06:35:16.955Z,9.17
2019-01-18T06:37:48.512Z,10.70
2019-01-18T06:40:20.078Z,8.90
2019-01-18T06:42:51.919Z,11.13
2019-01-18T06:45:24.870Z,8.90
2019-01-18T06:47:56.480Z,10.83
2019-01-18T06:50:28.500Z,9.33
2019-01-18T06:53:01.752Z,8.33
2019-01-18T06:55:34.892Z,8.37
2019-01-18T06:58:07.193Z,6.27
2019-01-18T07:00:38.794Z,7.40
2019-01-18T07:03:12.357Z,8.10
2019-01-18T07:05:43.821Z,8.00
2019-01-18T07:08:15.482Z,11.23
2019-01-18T07:10:47.106Z,10.53
2019-01-18T07:13:18.695Z,8.10
2019-01-18T07:15:50.339Z,12.53
2019-01-18T07:18:22.271Z,18.40
2019-01-18T07:20:54.201Z,14.37
2019-01-18T07:23:26.215Z,15.13
2019-01-18T07:25:57.737Z,13.97
2019-01-18T07:28:29.775Z,11.23
2019-01-18T07:31:01.375Z,15.27
2019-01-18T07:33:33.651Z,17.23
2019-01-18T07:36:05.533Z,11.87
2019-01-18T07:38:37.009Z,12.67
2019-01-18T07:41:11.527Z,10.70
2019-01-18T07:43:45.168Z,12.90
2019-01-18T07:46:17.091Z,14.60
2019-01-18T07:48:49.065Z,14.00
2019-01-18T07:51:20.807Z,13.13
2019-01-18T07:53:53.757Z,15.97
2019-01-18T07:56:25.465Z,21.40
2019-01-18T07:58:58.658Z,18.33
2019-01-18T08:01:30.593Z,12.47
2019-01-18T08:04:04.047Z,12.97
2019-01-18T08:06:35.929Z,15.50
2019-01-18T08:09:09.072Z,12.97
2019-01-18T08:11:40.928Z,10.67
2019-01-18T08:14:12.681Z,12.77
2019-01-18T08:16:44.239Z,13.10
2019-01-18T08:19:15.641Z,14.23
2019-01-18T08:21:49.033Z,12.37
2019-01-18T08:24:22.042Z,14.57
2019-01-18T08:26:53.788Z,12.97
2019-01-18T08:29:25.734Z,16.93
2019-01-18T08:31:57.175Z,16.53
2019-01-18T08:34:28.873Z,13.80
2019-01-18T08:37:00.663Z,13.40
2019-01-18T08:39:32.208Z,10.87
2019-01-18T08:42:03.706Z,11.57
2019-01-18T08:44:36.827Z,14.80
2019-01-18T08:47:09.977Z,17.50
2019-01-18T08:49:43.676Z,13.10
2019-01-18T08:52:15.098Z,10.97
2019-01-18T08:54:46.982Z,15.53
2019-01-18T08:57:18.728Z,14.40
2019-01-18T08:59:50.311Z,15.60
2019-01-18T09:02:22.250Z,14.50
2019-01-18T09:07:29.088Z,15.70
2019-01-18T09:10:00.874Z,14.97
2019-01-18T09:12:32.954Z,17.87
2019-01-18T09:15:06.967Z,17.63
2019-01-18T09:17:39.130Z,21.67
2019-01-18T09:20:16.616Z,16.53
2019-01-18T09:22:49.696Z,19.70
2019-01-18T09:25:23.037Z,13.93
2019-01-18T09:27:54.759Z,16.27
2019-01-18T09:30:33.170Z,12.77
2019-01-18T09:33:06.966Z,18.27
2019-01-18T09:35:39.740Z,18.60
2019-01-18T09:38:17.962Z,17.67
2019-01-18T09:40:49.910Z,21.97
2019-01-18T09:43:21.649Z,16.57
2019-01-18T09:45:53.187Z,19.90
2019-01-18T09:48:24.867Z,14.63
2019-01-18T09:50:57.886Z,12.80
2019-01-18T09:53:30.191Z,23.50
2019-01-18T09:56:03.166Z,14.03
2019-01-18T09:58:34.798Z,15.03
2019-01-18T10:01:06.580Z,15.47
2019-01-18T10:03:37.997Z,16.73
2019-01-18T10:06:09.893Z,17.73
2019-01-18T10:08:42.473Z,15.70
2019-01-18T10:11:13.913Z,17.73
2019-01-18T10:13:45.463Z,17.03
2019-01-18T10:16:16.929Z,16.67
2019-01-18T10:18:49.313Z,25.77
2019-01-18T10:21:21.235Z,16.27
2019-01-18T10:23:53.321Z,17.00
2019-01-18T10:26:25.320Z,17.43
2019-01-18T10:28:57.175Z,19.00
2019-01-18T10:31:29.216Z,14.73
2019-01-18T10:34:00.884Z,21.70
2019-01-18T10:36:32.226Z,16.57
2019-01-18T10:39:06.963Z,20.43
2019-01-18T10:41:40.111Z,15.90
2019-01-18T10:44:12.421Z,18.87
2019-01-18T10:46:45.138Z,21.60
2019-01-18T10:49:18.622Z,16.20
2019-01-18T10:51:51.108Z,14.97
2019-01-18T10:54:25.858Z,15.73
2019-01-18T10:56:57.411Z,14.93
2019-01-18T10:59:29.117Z,15.23
2019-01-18T11:02:07.170Z,17.73
2019-01-18T11:04:37.103Z,35.10
2019-01-18T11:07:08.595Z,27.77
2019-01-18T11:09:39.948Z,17.60
2019-01-18T11:12:13.062Z,23.60
2019-01-18T11:14:45.388Z,19.03
2019-01-18T11:17:18.599Z,17.87
2019-01-18T11:19:50.185Z,16.70
2019-01-18T11:22:22.036Z,19.33
2019-01-18T11:24:53.685Z,14.90
2019-01-18T11:27:25.428Z,14.67
2019-01-18T11:29:57.082Z,18.53
2019-01-18T11:32:28.662Z,19.27
2019-01-18T11:35:02.088Z,15.70
2019-01-18T11:37:33.581Z,19.73
2019-01-18T11:40:08.315Z,51.07
2019-01-18T11:42:39.828Z,35.13
2019-01-18T11:45:12.142Z,19.63
2019-01-18T11:47:44.310Z,13.07
2019-01-18T11:50:24.505Z,22.07
2019-01-18T11:52:56.436Z,19.03
2019-01-18T11:55:28.092Z,42.10
2019-01-18T11:57:59.824Z,25.73
2019-01-18T12:00:37.638Z,15.43
2019-01-18T12:03:05.430Z,14.17
2019-01-18T12:05:37.353Z,16.97
2019-01-18T12:08:11.721Z,20.83
2019-01-18T12:10:43.604Z,29.33
2019-01-18T12:13:16.784Z,19.60
2019-01-18T12:15:50.251Z,15.20
2019-01-18T12:18:22.047Z,15.87
2019-01-18T12:20:53.928Z,17.33
2019-01-18T12:23:27.166Z,13.20
2019-01-18T12:25:58.872Z,13.73
2019-01-18T12:28:30.677Z,14.73
2019-01-18T12:31:03.276Z,12.27
2019-01-18T12:33:36.673Z,13.10
2019-01-18T12:36:08.362Z,14.13
2019-01-18T12:38:39.867Z,11.93
2019-01-18T12:41:12.159Z,13.03
2019-01-18T12:43:43.728Z,12.53
2019-01-18T12:46:15.397Z,14.10
2019-01-18T12:48:48.229Z,16.97
2019-01-18T12:51:20.128Z,29.53
2019-01-18T12:53:51.779Z,13.13
2019-01-18T12:56:23.297Z,16.47
2019-01-18T12:58:56.596Z,16.00
2019-01-18T13:01:27.923Z,14.73
2019-01-18T13:03:59.755Z,13.33
2019-01-18T13:06:31.405Z,11.87
2019-01-18T13:09:03.141Z,15.07
2019-01-18T13:11:34.615Z,11.87
2019-01-18T13:14:07.011Z,12.17
2019-01-18T13:16:41.514Z,9.80
2019-01-18T13:19:23.211Z,14.10
2019-01-18T13:21:55.743Z,15.83
2019-01-18T13:24:28.961Z,12.23
2019-01-18T13:27:00.415Z,14.10
2019-01-18T13:29:32.160Z,13.10
2019-01-18T13:32:04.204Z,10.23
2019-01-18T13:34:36.904Z,12.27
2019-01-18T13:37:09.334Z,15.97
2019-01-18T13:39:40.785Z,14.03
2019-01-18T13:42:12.496Z,15.07
2019-01-18T13:44:44.126Z,14.13
2019-01-18T13:47:18.537Z,16.53
2019-01-18T13:49:51.010Z,14.10
2019-01-18T13:52:23.827Z,15.10
2019-01-18T13:54:57.278Z,16.87
2019-01-18T13:57:29.182Z,15.73
2019-01-18T14:00:00.968Z,17.20
2019-01-18T14:02:32.471Z,16.70
2019-01-18T14:05:04.948Z,11.97
2019-01-18T14:07:37.479Z,13.67
2019-01-18T14:10:15.053Z,14.77
2019-01-18T14:12:46.986Z,16.17
2019-01-18T14:15:20.706Z,14.73
2019-01-18T14:17:53.095Z,16.30
2019-01-18T14:20:25.891Z,13.10
2019-01-18T14:22:57.984Z,11.07
2019-01-18T14:25:29.785Z,15.00
2019-01-18T14:28:02.667Z,11.90
2019-01-18T14:30:35.738Z,13.37
2019-01-18T14:33:07.740Z,13.83
2019-01-18T14:35:40.211Z,10.03
2019-01-18T14:38:11.712Z,14.83
2019-01-18T14:40:43.093Z,13.47
2019-01-18T14:43:14.508Z,11.03
2019-01-18T14:45:45.878Z,13.07
2019-01-18T14:48:17.812Z,11.83
2019-01-18T14:50:49.345Z,13.03
2019-01-18T14:53:22.071Z,11.60
2019-01-18T14:55:53.534Z,14.87
2019-01-18T14:58:26.145Z,17.87
2019-01-18T15:00:57.849Z,10.10
2019-01-18T15:03:31.127Z,10.73
2019-01-18T15:06:05.172Z,14.10
2019-01-18T15:08:36.642Z,15.83
2019-01-18T15:11:08.278Z,8.83
2019-01-18T15:13:39.962Z,14.23
2019-01-18T15:16:11.403Z,8.93
2019-01-18T15:18:43.017Z,11.73
2019-01-18T15:21:15.293Z,12.33
2019-01-18T15:23:50.012Z,18.93
2019-01-18T15:26:25.622Z,10.67
2019-01-18T15:28:59.370Z,14.47
2019-01-18T15:31:30.953Z,12.27
2019-01-18T15:34:02.947Z,13.47
2019-01-18T15:36:34.518Z,16.67
2019-01-18T15:39:11.247Z,16.30
2019-01-18T15:41:42.779Z,19.27
2019-01-18T15:44:15.519Z,17.57
2019-01-18T15:46:47.751Z,15.90
2019-01-18T15:49:20.361Z,22.80
2019-01-18T15:51:51.981Z,23.10
2019-01-18T15:54:23.759Z,20.03
2019-01-18T15:56:55.173Z,22.33
2019-01-18T15:59:26.618Z,24.20
2019-01-18T16:01:58.582Z,22.50
2019-01-18T16:04:30.857Z,22.50
2019-01-18T16:07:02.360Z,29.70
2019-01-18T16:09:35.696Z,29.30
2019-01-18T16:12:07.295Z,23.93
2019-01-18T16:14:39.467Z,27.57
2019-01-18T16:17:19.218Z,22.87
2019-01-18T16:19:51.010Z,21.57
2019-01-18T16:22:22.878Z,24.70
2019-01-18T16:24:54.499Z,24.37
2019-01-18T16:27:26.088Z,26.17
2019-01-18T16:29:59.380Z,26.43
2019-01-18T16:32:33.192Z,31.60
2019-01-18T16:35:06.356Z,28.10
2019-01-18T16:37:40.703Z,24.50
2019-01-18T16:40:15.438Z,26.50
2019-01-18T16:42:48.996Z,27.50
2019-01-18T16:45:22.520Z,28.37
2019-01-18T16:47:55.207Z,28.63
2019-01-18T16:50:27.091Z,25.57
2019-01-18T16:52:58.966Z,23.07
2019-01-18T16:55:32.354Z,24.20
2019-01-18T16:58:03.830Z,25.67
2019-01-18T17:00:37.727Z,24.93
2019-01-18T17:03:09.346Z,26.43
2019-01-18T17:05:40.830Z,31.43
2019-01-18T17:08:12.448Z,35.70
2019-01-18T17:10:45.034Z,31.03
2019-01-18T17:13:16.573Z,28.63
2019-01-18T17:15:49.372Z,28.67
2019-01-18T17:18:22.785Z,25.23
2019-01-18T17:20:54.561Z,25.83
2019-01-18T17:23:26.329Z,28.87
2019-01-18T17:25:58.053Z,26.73
2019-01-18T17:28:30.170Z,25.87
2019-01-18T17:31:01.526Z,25.57
2019-01-18T17:33:37.023Z,28.33
2019-01-18T17:36:49.825Z,27.33
2019-01-18T17:39:50.530Z,32.60
2019-01-18T17:42:59.736Z,33.73
2019-01-18T17:46:06.935Z,30.13
2019-01-18T17:49:14.113Z,26.17
2019-01-18T17:52:28.610Z,31.77
2019-01-18T17:55:23.846Z,32.07
2019-01-18T17:58:41.899Z,31.20
2019-01-18T18:01:34.252Z,35.17
2019-01-18T18:04:55.804Z,36.70
2019-01-18T18:07:37.130Z,34.10
2019-01-18T18:10:51.666Z,39.63
2019-01-18T18:14:05.395Z,43.23
2019-01-18T18:17:14.989Z,39.70
2019-01-18T18:20:29.131Z,39.43
2019-01-18T18:23:27.227Z,49.93
2019-01-18T18:26:39.035Z,39.23
2019-01-18T18:29:41.473Z,39.93
2019-01-18T18:32:36.783Z,36.23
2019-01-18T18:36:06.113Z,39.20
2019-01-18T18:39:23.649Z,38.53
2019-01-18T18:42:34.265Z,38.93
2019-01-18T18:45:49.290Z,40.43
2019-01-18T18:48:45.689Z,40.23
2019-01-18T18:52:09.858Z,41.50
2019-01-18T18:55:25.312Z,39.30
2019-01-18T18:58:48.651Z,42.07
2019-01-18T19:02:03.854Z,35.93
2019-01-18T19:05:00.010Z,35.83
2019-01-18T19:08:16.001Z,38.07
2019-01-18T19:11:16.101Z,38.73
2019-01-18T19:14:30.572Z,34.40
2019-01-18T19:17:50.077Z,39.77
2019-01-18T19:20:50.997Z,33.87
2019-01-18T19:23:41.865Z,32.90
2019-01-18T19:26:50.809Z,40.23
2019-01-18T19:29:49.408Z,33.57
2019-01-18T19:33:20.151Z,35.20
2019-01-18T19:36:45.460Z,36.27
2019-01-18T19:39:36.188Z,35.13
2019-01-18T19:42:32.276Z,38.93
2019-01-18T19:45:40.550Z,34.10
2019-01-18T19:48:51.724Z,42.47
2019-01-18T19:51:53.754Z,33.10
2019-01-18T19:54:36.858Z,33.13
2019-01-18T19:57:47.645Z,37.10
2019-01-18T20:01:06.217Z,30.63
2019-01-18T20:03:56.908Z,32.73
2019-01-18T20:06:57.157Z,32.37
2019-01-18T20:09:43.978Z,26.47
2019-01-18T20:12:28.001Z,32.97
2019-01-18T20:15:19.494Z,30.03
2019-01-18T20:18:35.640Z,30.30
2019-01-18T20:21:42.715Z,28.53
2019-01-18T20:24:47.252Z,26.60
2019-01-18T20:27:51.507Z,26.20
2019-01-18T20:31:00.451Z,28.93
2019-01-18T20:34:26.593Z,29.57
2019-01-18T20:37:34.678Z,25.27
2019-01-18T20:40:59.856Z,23.33
2019-01-18T20:44:17.155Z,25.37
2019-01-18T20:47:37.331Z,20.37
2019-01-18T20:50:28.393Z,20.10
2019-01-18T20:53:38.009Z,20.87
2019-01-18T20:56:43.821Z,23.60
2019-01-18T20:59:35.140Z,21.37
2019-01-18T21:02:37.224Z,18.87
2019-01-18T21:05:23.363Z,21.30
2019-01-18T21:08:31.035Z,20.80
2019-01-18T21:11:43.041Z,20.23
2019-01-18T21:15:07.907Z,22.27
2019-01-18T21:18:14.522Z,20.57
2019-01-18T21:21:07.340Z,19.73
2019-01-18T21:24:07.723Z,18.80
2019-01-18T21:27:01.243Z,18.23
2019-01-18T21:30:18.842Z,23.20
2019-01-18T21:33:13.760Z,19.50
2019-01-18T21:36:24.944Z,23.57
2019-01-18T21:39:37.067Z,21.60
2019-01-18T21:42:45.670Z,22.13
2019-01-18T21:45:59.134Z,22.13
2019-01-18T21:48:55.959Z,22.03
2019-01-18T21:52:06.688Z,20.63
2019-01-18T21:55:04.201Z,20.47
2019-01-18T21:58:21.437Z,23.03
2019-01-18T22:01:31.654Z,21.00
2019-01-18T22:04:40.409Z,18.03
2019-01-18T22:07:30.103Z,17.00
2019-01-18T22:10:32.467Z,22.60
2019-01-18T22:13:44.512Z,19.07
2019-01-18T22:16:49.966Z,19.50
2019-01-18T22:20:05.651Z,22.40
2019-01-18T22:23:24.671Z,24.03
2019-01-18T22:26:35.692Z,19.87
2019-01-18T22:29:23.950Z,21.43
2019-01-18T22:32:21.057Z,28.17
2019-01-18T22:35:15.184Z,24.53
2019-01-18T22:38:28.360Z,20.37
2019-01-18T22:41:27.161Z,21.17
2019-01-18T22:44:36.851Z,21.27
2019-01-18T22:48:10.303Z,23.13
2019-01-18T22:51:28.593Z,20.73
2019-01-18T22:54:42.515Z,23.57
2019-01-18T22:57:55.851Z,21.63
2019-01-18T23:01:09.500Z,21.90
2019-01-18T23:04:06.535Z,24.37
2019-01-18T23:07:25.150Z,24.77
2019-01-18T23:10:39.297Z,25.83
2019-01-18T23:13:46.716Z,29.27
2019-01-18T23:17:05.090Z,22.50
2019-01-18T23:20:36.061Z,21.87
2019-01-18T23:23:32.165Z,26.93
2019-01-18T23:26:31.255Z,24.83
2019-01-18T23:29:18.948Z,27.70
2019-01-18T23:32:34.437Z,23.50
2019-01-18T23:35:31.966Z,23.67
2019-01-18T23:38:48.071Z,26.97
2019-01-18T23:41:32.307Z,22.90
2019-01-18T23:44:32.965Z,23.97
2019-01-18T23:47:44.585Z,24.47
2019-01-18T23:50:37.794Z,28.87
2019-01-18T23:53:33.601Z,25.43
2019-01-18T23:56:34.416Z,28.90
2019-01-18T23:59:34.274Z,21.23
